createdAt,value
2023-01-03T00:01:08.301Z,4.20
2023-01-03T00:06:17.436Z,4.20
2023-01-03T00:11:44.060Z,3.80
2023-01-03T00:16:48.652Z,3.93
2023-01-03T00:21:52.196Z,3.73
2023-01-03T00:26:56.954Z,4.07
2023-01-03T00:32:01.508Z,4.13
2023-01-03T00:37:04.769Z,3.80
2023-01-03T00:42:09.575Z,4.53
2023-01-03T00:47:12.801Z,4.90
2023-01-03T00:52:16.054Z,4.03
2023-01-03T00:57:20.727Z,4.10
2023-01-03T01:02:24.154Z,4.70
2023-01-03T01:07:27.520Z,4.63
2023-01-03T01:12:32.171Z,4.07
2023-01-03T01:17:35.801Z,4.67
2023-01-03T01:22:39.086Z,4.07
2023-01-03T01:27:43.753Z,4.30
2023-01-03T01:32:47.454Z,3.63
2023-01-03T01:37:50.912Z,3.73
2023-01-03T01:43:13.078Z,4.03
2023-01-03T01:48:16.904Z,3.80
2023-01-03T01:53:23.324Z,3.80
2023-01-03T01:58:32.633Z,3.70
2023-01-03T02:03:36.248Z,3.87
2023-01-03T02:08:39.581Z,4.33
2023-01-03T02:13:53.522Z,3.77
2023-01-03T02:19:09.023Z,4.17
2023-01-03T02:24:43.360Z,3.87
2023-01-03T02:30:14.351Z,4.23
2023-01-03T02:35:24.736Z,5.20
2023-01-03T02:40:34.629Z,3.53
2023-01-03T02:46:02.045Z,4.03
2023-01-03T02:51:11.906Z,3.30
2023-01-03T02:56:19.596Z,3.67
2023-01-03T03:01:23.178Z,3.77
2023-01-03T03:06:34.170Z,3.07
2023-01-03T03:11:59.276Z,3.07
2023-01-03T03:17:05.670Z,3.60
2023-01-03T03:22:38.690Z,3.10
2023-01-03T03:28:03.799Z,3.40
2023-01-03T03:33:08.096Z,3.67
2023-01-03T03:38:16.415Z,3.40
2023-01-03T03:43:45.458Z,3.30
2023-01-03T03:49:13.598Z,3.63
2023-01-03T03:54:22.853Z,3.20
2023-01-03T03:59:28.653Z,3.77
2023-01-03T04:04:36.977Z,4.33
2023-01-03T04:09:41.726Z,4.77
2023-01-03T04:21:02.324Z,3.77
2023-01-03T04:26:07.210Z,3.33
2023-01-03T04:37:27.113Z,3.77
2023-01-03T04:42:49.247Z,3.50
2023-01-03T04:47:54.402Z,3.43
2023-01-03T04:52:58.092Z,3.77
2023-01-03T04:58:02.748Z,4.00
2023-01-03T05:03:06.009Z,3.80
2023-01-03T05:08:11.016Z,3.90
2023-01-03T05:13:15.673Z,3.73
2023-01-03T05:18:19.023Z,4.50
2023-01-03T05:23:40.181Z,4.33
2023-01-03T05:28:47.721Z,4.53
2023-01-03T05:33:51.122Z,4.10
2023-01-03T05:38:54.392Z,4.20
2023-01-03T05:43:59.345Z,3.37
2023-01-03T05:49:02.581Z,3.70
2023-01-03T05:54:07.581Z,3.90
2023-01-03T05:59:12.707Z,4.07
2023-01-03T06:04:16.204Z,3.33
2023-01-03T06:09:19.787Z,3.73
2023-01-03T06:14:24.459Z,3.57
2023-01-03T06:19:27.722Z,4.07
2023-01-03T06:24:30.970Z,3.47
2023-01-03T06:29:35.677Z,3.30
2023-01-03T06:34:39.265Z,4.20
2023-01-03T06:39:42.767Z,4.30
2023-01-03T06:45:07.956Z,3.43
2023-01-03T06:50:28.912Z,3.70
2023-01-03T06:55:32.207Z,3.53
2023-01-03T07:00:39.336Z,3.47
2023-01-03T07:05:42.604Z,3.30
2023-01-03T07:10:45.899Z,3.47
2023-01-03T07:15:51.640Z,3.40
2023-01-03T07:20:55.239Z,2.77
2023-01-03T07:25:58.482Z,2.43
2023-01-03T07:31:06.099Z,2.73
2023-01-03T07:36:12.057Z,2.53
2023-01-03T07:41:16.843Z,2.30
2023-01-03T07:46:23.414Z,2.00
2023-01-03T07:51:26.970Z,2.20
2023-01-03T07:56:30.258Z,2.03
2023-01-03T08:01:35.328Z,2.13
2023-01-03T08:06:38.699Z,2.30
2023-01-03T08:12:14.191Z,2.10
2023-01-03T08:17:18.936Z,1.77
2023-01-03T08:22:22.195Z,2.00
2023-01-03T08:27:25.521Z,2.50
2023-01-03T08:32:32.163Z,3.57
2023-01-03T08:37:35.492Z,4.80
2023-01-03T08:42:39.323Z,4.88
2023-01-03T08:47:44.815Z,5.95
2023-01-03T08:52:48.166Z,4.25
2023-01-03T08:57:51.492Z,4.80
2023-01-03T09:02:59.683Z,5.23
2023-01-03T09:08:03.219Z,5.13
2023-01-03T09:13:07.040Z,5.03
2023-01-03T09:18:11.701Z,5.23
2023-01-03T09:23:15.071Z,4.55
2023-01-03T09:28:18.662Z,4.43
2023-01-03T09:33:23.413Z,2.97
2023-01-03T09:38:26.728Z,2.45
2023-01-03T09:43:37.008Z,4.10
2023-01-03T09:48:42.969Z,2.75
2023-01-03T09:54:03.770Z,2.75
2023-01-03T09:59:30.702Z,2.28
2023-01-03T10:05:07.376Z,2.13
2023-01-03T10:10:19.734Z,2.13
2023-01-03T10:15:30.126Z,2.17
2023-01-03T10:20:47.132Z,2.20
2023-01-03T10:25:50.475Z,2.00
2023-01-03T10:31:11.356Z,2.13
2023-01-03T10:36:18.824Z,1.70
2023-01-03T10:41:31.137Z,1.52
2023-01-03T10:46:34.601Z,1.85
2023-01-03T10:51:44.404Z,1.80
2023-01-03T10:56:49.160Z,2.17
2023-01-03T11:02:04.564Z,1.80
2023-01-03T11:13:35.946Z,1.55
2023-01-03T11:18:39.408Z,1.40
2023-01-03T11:24:08.167Z,1.48
2023-01-03T11:29:37.557Z,1.60
2023-01-03T11:40:33.000Z,1.48
2023-01-03T11:45:49.583Z,1.00
2023-01-03T11:50:57.882Z,1.10
2023-01-03T11:56:11.941Z,1.15
2023-01-03T12:01:25.165Z,1.00
2023-01-03T12:06:35.437Z,1.30
2023-01-03T12:12:08.860Z,2.17
2023-01-03T12:17:18.749Z,1.33
2023-01-03T12:22:26.178Z,1.45
2023-01-03T12:27:36.781Z,1.15
2023-01-03T12:32:48.481Z,1.27
2023-01-03T12:37:52.781Z,1.60
2023-01-03T12:43:05.837Z,1.23
2023-01-03T12:48:22.613Z,1.50
2023-01-03T12:53:31.905Z,1.98
2023-01-03T12:58:55.029Z,1.40
2023-01-03T13:04:04.220Z,1.40
2023-01-03T13:09:16.836Z,1.60
2023-01-03T13:14:23.539Z,1.40
2023-01-03T13:19:56.519Z,1.20
2023-01-03T13:25:36.842Z,1.40
2023-01-03T13:30:41.654Z,1.08
2023-01-03T13:36:01.731Z,1.25
2023-01-03T13:41:18.166Z,1.20
2023-01-03T13:46:26.570Z,1.40
2023-01-03T13:51:49.462Z,1.27
2023-01-03T13:57:05.340Z,1.00
2023-01-03T14:03:01.885Z,1.35
2023-01-03T14:08:23.716Z,1.10
2023-01-03T14:13:39.098Z,1.38
2023-01-03T14:18:50.198Z,1.27
2023-01-03T14:24:00.111Z,1.33
2023-01-03T14:29:11.580Z,1.33
2023-01-03T14:34:22.564Z,1.42
2023-01-03T14:44:36.142Z,1.33
2023-01-03T14:49:46.024Z,1.70
2023-01-03T14:54:58.527Z,1.67
2023-01-03T15:00:06.602Z,2.28
2023-01-03T15:05:26.918Z,1.85
2023-01-03T15:10:38.144Z,2.15
2023-01-03T15:15:41.891Z,1.90
2023-01-03T15:20:47.053Z,1.80
2023-01-03T15:25:52.202Z,1.85
2023-01-03T15:37:40.950Z,1.90
2023-01-03T15:43:02.691Z,2.30
2023-01-03T15:48:13.886Z,1.90
2023-01-03T15:53:44.196Z,1.83
2023-01-03T15:58:49.666Z,2.03
2023-01-03T16:03:53.786Z,2.17
2023-01-03T16:08:58.590Z,2.08
2023-01-03T16:14:05.003Z,1.73
2023-01-03T16:19:09.182Z,2.10
2023-01-03T16:24:17.254Z,1.90
2023-01-03T16:36:05.212Z,2.10
2023-01-03T16:41:11.684Z,1.95
2023-01-03T16:46:17.486Z,2.03
2023-01-03T16:51:24.507Z,2.35
2023-01-03T16:56:29.326Z,2.42
2023-01-03T17:01:32.771Z,2.00
2023-01-03T17:06:38.640Z,3.00
2023-01-03T17:11:43.871Z,3.13
2023-01-03T17:16:48.173Z,2.47
2023-01-03T17:21:51.848Z,2.97
2023-01-03T17:27:03.939Z,2.60
2023-01-03T17:32:16.613Z,3.30
2023-01-03T17:37:22.575Z,2.70
2023-01-03T17:42:29.312Z,3.17
2023-01-03T17:47:50.823Z,3.50
2023-01-03T17:52:56.252Z,3.60
2023-01-03T17:58:04.150Z,3.13
2023-01-03T18:03:07.737Z,3.63
2023-01-03T18:08:19.198Z,3.92
2023-01-03T18:13:27.029Z,3.33
2023-01-03T18:18:31.128Z,3.05
2023-01-03T18:23:37.343Z,3.45
2023-01-03T18:28:42.167Z,4.10
2023-01-03T18:33:45.912Z,3.83
2023-01-03T18:38:49.491Z,4.20
2023-01-03T18:43:54.695Z,3.50
2023-01-03T18:48:58.368Z,4.20
2023-01-03T18:54:01.743Z,3.55
2023-01-03T18:59:11.042Z,3.88
2023-01-03T19:04:14.591Z,3.47
2023-01-03T19:09:23.256Z,3.55
2023-01-03T19:14:28.336Z,3.55
2023-01-03T19:19:32.002Z,3.42
2023-01-03T19:24:39.525Z,4.00
2023-01-03T19:29:45.799Z,3.58
2023-01-03T19:34:49.553Z,3.15
2023-01-03T19:39:53.639Z,3.60
2023-01-03T19:45:00.853Z,3.53
2023-01-03T19:50:16.494Z,3.20
2023-01-03T19:55:21.530Z,3.53
2023-01-03T20:00:28.844Z,4.50
2023-01-03T20:12:25.496Z,3.35
2023-01-03T20:17:31.674Z,2.95
2023-01-03T20:28:01.244Z,3.08
2023-01-03T20:33:07.351Z,4.38
2023-01-03T20:38:13.745Z,4.30
2023-01-03T20:43:18.377Z,3.60
2023-01-03T20:48:26.234Z,4.53
2023-01-03T20:53:31.695Z,3.70
2023-01-03T20:58:35.969Z,4.10
2023-01-03T21:03:42.063Z,3.80
2023-01-03T21:08:58.376Z,4.45
2023-01-03T21:14:03.184Z,4.18
2023-01-03T21:19:13.468Z,4.18
2023-01-03T21:24:18.910Z,4.05
2023-01-03T21:29:22.465Z,4.22
2023-01-03T21:34:27.954Z,3.88
2023-01-03T21:39:31.424Z,4.55
2023-01-03T21:44:35.562Z,4.32
2023-01-03T21:49:40.640Z,3.65
2023-01-03T21:54:43.941Z,4.32
2023-01-03T21:59:47.334Z,4.63
2023-01-03T22:11:36.435Z,3.35
2023-01-03T22:16:40.063Z,4.35
2023-01-03T22:28:50.080Z,4.10
2023-01-03T22:33:53.439Z,4.35
2023-01-03T22:38:56.731Z,4.53
2023-01-03T22:44:01.413Z,4.00
2023-01-03T22:49:04.713Z,3.95
2023-01-03T22:54:08.107Z,4.50
2023-01-03T22:59:13.172Z,4.65
2023-01-03T23:04:19.205Z,4.68
2023-01-03T23:09:23.073Z,4.15
2023-01-03T23:21:12.418Z,4.75
2023-01-03T23:26:15.696Z,5.20
2023-01-03T23:31:18.974Z,3.63
2023-01-03T23:36:23.806Z,4.28
2023-01-03T23:41:27.145Z,3.80
2023-01-03T23:46:30.579Z,4.07
2023-01-03T23:51:35.391Z,4.40
2023-01-03T23:56:39.038Z,4.53
